sensor_id;sensor_type;location;lat;lon;timestamp;temperature;humidity
4584;DHT22;2304;47.606;12.186;2023-04-12T00:04:18;7.50;64.90
4584;DHT22;2304;47.606;12.186;2023-04-12T00:09:23;7.40;64.90
4584;DHT22;2304;47.606;12.186;2023-04-12T00:14:30;7.30;65.60
4584;DHT22;2304;47.606;12.186;2023-04-12T00:19:31;7.20;66.10
4584;DHT22;2304;47.606;12.186;2023-04-12T00:24:37;7.20;65.70
4584;DHT22;2304;47.606;12.186;2023-04-12T00:29:39;7.20;66.20
4584;DHT22;2304;47.606;12.186;2023-04-12T00:34:40;7.30;66.20
4584;DHT22;2304;47.606;12.186;2023-04-12T00:39:44;7.30;66.60
4584;DHT22;2304;47.606;12.186;2023-04-12T00:44:46;7.30;66.60
4584;DHT22;2304;47.606;12.186;2023-04-12T00:49:47;7.30;66.50
4584;DHT22;2304;47.606;12.186;2023-04-12T00:54:52;7.40;66.40
4584;DHT22;2304;47.606;12.186;2023-04-12T00:59:54;7.30;66.70
4584;DHT22;2304;47.606;12.186;2023-04-12T01:04:56;7.30;66.70
4584;DHT22;2304;47.606;12.186;2023-04-12T01:10:05;7.40;66.40
4584;DHT22;2304;47.606;12.186;2023-04-12T01:15:09;7.40;67.00
4584;DHT22;2304;47.606;12.186;2023-04-12T01:20:14;7.50;66.50
4584;DHT22;2304;47.606;12.186;2023-04-12T01:25:32;7.30;67.30
4584;DHT22;2304;47.606;12.186;2023-04-12T01:30:41;7.40;66.60
4584;DHT22;2304;47.606;12.186;2023-04-12T01:35:43;7.30;66.90
4584;DHT22;2304;47.606;12.186;2023-04-12T01:40:47;7.30;67.30
4584;DHT22;2304;47.606;12.186;2023-04-12T01:45:50;7.10;67.60
4584;DHT22;2304;47.606;12.186;2023-04-12T01:51:00;7.30;67.60
4584;DHT22;2304;47.606;12.186;2023-04-12T01:56:07;7.30;67.60
4584;DHT22;2304;47.606;12.186;2023-04-12T02:01:11;7.20;68.40
4584;DHT22;2304;47.606;12.186;2023-04-12T02:06:15;7.10;69.20
4584;DHT22;2304;47.606;12.186;2023-04-12T02:11:18;7.10;69.10
4584;DHT22;2304;47.606;12.186;2023-04-12T02:16:22;7.10;68.90
4584;DHT22;2304;47.606;12.186;2023-04-12T02:21:24;7.10;69.00
4584;DHT22;2304;47.606;12.186;2023-04-12T02:26:27;7.20;68.90
4584;DHT22;2304;47.606;12.186;2023-04-12T02:31:30;7.10;69.20
4584;DHT22;2304;47.606;12.186;2023-04-12T02:36:32;7.20;69.00
4584;DHT22;2304;47.606;12.186;2023-04-12T02:41:35;7.20;68.90
4584;DHT22;2304;47.606;12.186;2023-04-12T02:46:38;7.20;68.90
4584;DHT22;2304;47.606;12.186;2023-04-12T02:51:40;7.20;68.80
4584;DHT22;2304;47.606;12.186;2023-04-12T02:56:42;7.20;68.50
4584;DHT22;2304;47.606;12.186;2023-04-12T03:01:45;7.20;69.60
4584;DHT22;2304;47.606;12.186;2023-04-12T03:06:49;7.30;68.50
4584;DHT22;2304;47.606;12.186;2023-04-12T03:11:53;7.20;68.60
4584;DHT22;2304;47.606;12.186;2023-04-12T03:16:56;7.30;68.70
4584;DHT22;2304;47.606;12.186;2023-04-12T03:21:58;7.20;68.70
4584;DHT22;2304;47.606;12.186;2023-04-12T03:27:01;7.20;69.10
4584;DHT22;2304;47.606;12.186;2023-04-12T03:32:04;7.10;69.50
4584;DHT22;2304;47.606;12.186;2023-04-12T03:37:06;7.00;69.60
4584;DHT22;2304;47.606;12.186;2023-04-12T03:42:08;7.00;70.00
4584;DHT22;2304;47.606;12.186;2023-04-12T03:47:11;7.00;70.00
4584;DHT22;2304;47.606;12.186;2023-04-12T03:52:13;6.90;70.40
4584;DHT22;2304;47.606;12.186;2023-04-12T03:57:15;6.80;70.50
4584;DHT22;2304;47.606;12.186;2023-04-12T04:02:18;6.90;70.90
4584;DHT22;2304;47.606;12.186;2023-04-12T04:07:22;6.80;70.70
4584;DHT22;2304;47.606;12.186;2023-04-12T04:12:23;6.70;71.40
4584;DHT22;2304;47.606;12.186;2023-04-12T04:17:26;6.60;71.90
4584;DHT22;2304;47.606;12.186;2023-04-12T04:22:28;6.60;72.30
4584;DHT22;2304;47.606;12.186;2023-04-12T04:27:32;6.60;72.10
4584;DHT22;2304;47.606;12.186;2023-04-12T04:32:35;6.50;72.30
4584;DHT22;2304;47.606;12.186;2023-04-12T04:37:37;6.50;72.60
4584;DHT22;2304;47.606;12.186;2023-04-12T04:42:40;6.50;72.50
4584;DHT22;2304;47.606;12.186;2023-04-12T04:47:43;6.40;73.10
4584;DHT22;2304;47.606;12.186;2023-04-12T04:52:45;6.30;73.90
4584;DHT22;2304;47.606;12.186;2023-04-12T04:57:48;6.30;74.40
4584;DHT22;2304;47.606;12.186;2023-04-12T05:02:51;6.40;74.90
4584;DHT22;2304;47.606;12.186;2023-04-12T05:07:53;6.40;74.80
4584;DHT22;2304;47.606;12.186;2023-04-12T05:12:56;6.40;75.40
4584;DHT22;2304;47.606;12.186;2023-04-12T05:17:59;6.40;75.50
4584;DHT22;2304;47.606;12.186;2023-04-12T05:23:01;6.30;75.70
4584;DHT22;2304;47.606;12.186;2023-04-12T05:28:03;6.40;75.90
4584;DHT22;2304;47.606;12.186;2023-04-12T05:33:06;6.60;75.00
4584;DHT22;2304;47.606;12.186;2023-04-12T05:38:08;6.70;74.50
4584;DHT22;2304;47.606;12.186;2023-04-12T05:43:10;6.60;74.30
4584;DHT22;2304;47.606;12.186;2023-04-12T05:48:14;6.70;74.00
4584;DHT22;2304;47.606;12.186;2023-04-12T05:53:16;6.70;73.00
4584;DHT22;2304;47.606;12.186;2023-04-12T05:58:17;6.70;74.00
4584;DHT22;2304;47.606;12.186;2023-04-12T06:03:21;6.70;75.10
4584;DHT22;2304;47.606;12.186;2023-04-12T06:08:24;6.70;75.70
4584;DHT22;2304;47.606;12.186;2023-04-12T06:13:28;6.70;75.70
4584;DHT22;2304;47.606;12.186;2023-04-12T06:18:32;6.90;76.20
4584;DHT22;2304;47.606;12.186;2023-04-12T06:23:33;6.70;76.50
4584;DHT22;2304;47.606;12.186;2023-04-12T06:28:36;6.90;75.80
4584;DHT22;2304;47.606;12.186;2023-04-12T06:33:39;6.80;76.40
4584;DHT22;2304;47.606;12.186;2023-04-12T06:38:41;6.80;76.80
4584;DHT22;2304;47.606;12.186;2023-04-12T06:43:43;6.80;76.70
4584;DHT22;2304;47.606;12.186;2023-04-12T06:48:46;6.80;77.20
4584;DHT22;2304;47.606;12.186;2023-04-12T06:53:48;6.80;77.00
4584;DHT22;2304;47.606;12.186;2023-04-12T06:58:49;6.90;75.90
4584;DHT22;2304;47.606;12.186;2023-04-12T07:03:53;7.10;75.20
4584;DHT22;2304;47.606;12.186;2023-04-12T07:08:54;7.00;73.60
4584;DHT22;2304;47.606;12.186;2023-04-12T07:13:56;7.10;73.80
4584;DHT22;2304;47.606;12.186;2023-04-12T07:19:00;7.10;73.40
4584;DHT22;2304;47.606;12.186;2023-04-12T07:24:02;7.30;74.10
4584;DHT22;2304;47.606;12.186;2023-04-12T07:29:04;7.40;74.40
4584;DHT22;2304;47.606;12.186;2023-04-12T07:34:08;7.50;73.50
4584;DHT22;2304;47.606;12.186;2023-04-12T07:39:09;7.70;73.60
4584;DHT22;2304;47.606;12.186;2023-04-12T07:44:12;7.80;72.70
4584;DHT22;2304;47.606;12.186;2023-04-12T07:49:15;7.90;72.50
4584;DHT22;2304;47.606;12.186;2023-04-12T07:54:17;8.00;72.10
4584;DHT22;2304;47.606;12.186;2023-04-12T07:59:19;8.10;73.10
4584;DHT22;2304;47.606;12.186;2023-04-12T08:04:22;8.10;72.70
4584;DHT22;2304;47.606;12.186;2023-04-12T08:09:24;8.20;72.60
4584;DHT22;2304;47.606;12.186;2023-04-12T08:14:26;8.30;72.10
4584;DHT22;2304;47.606;12.186;2023-04-12T08:19:29;8.40;71.90
4584;DHT22;2304;47.606;12.186;2023-04-12T08:24:31;8.50;72.30
4584;DHT22;2304;47.606;12.186;2023-04-12T08:29:33;9.00;72.90
4584;DHT22;2304;47.606;12.186;2023-04-12T08:34:36;8.70;72.80
4584;DHT22;2304;47.606;12.186;2023-04-12T08:39:38;8.50;73.10
4584;DHT22;2304;47.606;12.186;2023-04-12T08:44:40;8.50;72.80
4584;DHT22;2304;47.606;12.186;2023-04-12T08:49:43;8.60;73.60
4584;DHT22;2304;47.606;12.186;2023-04-12T08:54:45;8.50;73.90
4584;DHT22;2304;47.606;12.186;2023-04-12T08:59:49;8.50;72.90
4584;DHT22;2304;47.606;12.186;2023-04-12T09:04:52;8.50;73.80
4584;DHT22;2304;47.606;12.186;2023-04-12T09:09:54;8.50;75.30
4584;DHT22;2304;47.606;12.186;2023-04-12T09:15:07;8.40;76.50
4584;DHT22;2304;47.606;12.186;2023-04-12T09:20:23;8.50;77.60
4584;DHT22;2304;47.606;12.186;2023-04-12T09:25:36;8.50;77.90
4584;DHT22;2304;47.606;12.186;2023-04-12T09:30:40;8.60;78.30
4584;DHT22;2304;47.606;12.186;2023-04-12T09:35:44;8.50;73.10
4584;DHT22;2304;47.606;12.186;2023-04-12T09:40:45;8.90;73.10
4584;DHT22;2304;47.606;12.186;2023-04-12T09:45:48;8.90;71.10
4584;DHT22;2304;47.606;12.186;2023-04-12T09:50:57;8.90;69.20
4584;DHT22;2304;47.606;12.186;2023-04-12T09:56:01;8.80;69.10
4584;DHT22;2304;47.606;12.186;2023-04-12T10:01:05;8.80;70.80
4584;DHT22;2304;47.606;12.186;2023-04-12T10:06:11;8.90;70.50
4584;DHT22;2304;47.606;12.186;2023-04-12T10:11:14;9.00;71.20
4584;DHT22;2304;47.606;12.186;2023-04-12T10:16:16;9.10;72.00
4584;DHT22;2304;47.606;12.186;2023-04-12T10:21:20;9.40;68.40
4584;DHT22;2304;47.606;12.186;2023-04-12T10:26:22;9.50;67.90
4584;DHT22;2304;47.606;12.186;2023-04-12T10:31:28;9.70;65.90
4584;DHT22;2304;47.606;12.186;2023-04-12T10:36:51;9.80;66.10
4584;DHT22;2304;47.606;12.186;2023-04-12T10:42:14;9.80;65.00
4584;DHT22;2304;47.606;12.186;2023-04-12T10:47:54;9.80;64.00
4584;DHT22;2304;47.606;12.186;2023-04-12T10:53:21;10.40;65.90
4584;DHT22;2304;47.606;12.186;2023-04-12T10:58:56;11.40;68.00
4584;DHT22;2304;47.606;12.186;2023-04-12T11:04:08;12.20;64.90
4584;DHT22;2304;47.606;12.186;2023-04-12T11:09:24;12.20;57.90
4584;DHT22;2304;47.606;12.186;2023-04-12T11:14:33;12.00;57.00
4584;DHT22;2304;47.606;12.186;2023-04-12T11:19:37;12.40;56.90
4584;DHT22;2304;47.606;12.186;2023-04-12T11:24:43;13.30;58.70
4584;DHT22;2304;47.606;12.186;2023-04-12T11:29:47;13.30;55.40
4584;DHT22;2304;47.606;12.186;2023-04-12T11:34:50;13.50;54.70
4584;DHT22;2304;47.606;12.186;2023-04-12T11:39:56;13.70;54.60
4584;DHT22;2304;47.606;12.186;2023-04-12T11:44:58;14.00;54.80
4584;DHT22;2304;47.606;12.186;2023-04-12T11:50:00;13.70;53.20
4584;DHT22;2304;47.606;12.186;2023-04-12T11:55:04;13.70;53.60
4584;DHT22;2304;47.606;12.186;2023-04-12T12:00:09;13.40;53.60
4584;DHT22;2304;47.606;12.186;2023-04-12T12:05:10;13.30;54.70
4584;DHT22;2304;47.606;12.186;2023-04-12T12:10:14;13.30;54.70
4584;DHT22;2304;47.606;12.186;2023-04-12T12:15:16;13.10;55.20
4584;DHT22;2304;47.606;12.186;2023-04-12T12:20:21;13.00;55.30
4584;DHT22;2304;47.606;12.186;2023-04-12T12:25:25;13.00;56.40
4584;DHT22;2304;47.606;12.186;2023-04-12T12:30:29;13.10;55.80
4584;DHT22;2304;47.606;12.186;2023-04-12T12:35:33;13.30;56.20
4584;DHT22;2304;47.606;12.186;2023-04-12T12:40:36;13.60;56.00
4584;DHT22;2304;47.606;12.186;2023-04-12T12:45:39;13.80;54.80
4584;DHT22;2304;47.606;12.186;2023-04-12T12:50:41;13.90;54.50
4584;DHT22;2304;47.606;12.186;2023-04-12T12:55:44;14.40;55.00
4584;DHT22;2304;47.606;12.186;2023-04-12T13:00:46;14.80;54.90
4584;DHT22;2304;47.606;12.186;2023-04-12T13:05:48;14.80;53.50
4584;DHT22;2304;47.606;12.186;2023-04-12T13:10:52;14.70;53.70
4584;DHT22;2304;47.606;12.186;2023-04-12T13:15:55;14.70;53.60
4584;DHT22;2304;47.606;12.186;2023-04-12T13:20:57;14.70;53.80
4584;DHT22;2304;47.606;12.186;2023-04-12T13:26:00;14.80;55.50
4584;DHT22;2304;47.606;12.186;2023-04-12T13:31:01;14.90;53.90
4584;DHT22;2304;47.606;12.186;2023-04-12T13:36:04;14.90;54.40
4584;DHT22;2304;47.606;12.186;2023-04-12T13:41:07;14.80;54.60
4584;DHT22;2304;47.606;12.186;2023-04-12T13:46:09;15.00;54.90
4584;DHT22;2304;47.606;12.186;2023-04-12T13:51:12;15.60;55.30
4584;DHT22;2304;47.606;12.186;2023-04-12T13:56:15;15.50;53.50
4584;DHT22;2304;47.606;12.186;2023-04-12T14:01:17;15.70;53.90
4584;DHT22;2304;47.606;12.186;2023-04-12T14:06:22;15.90;52.80
4584;DHT22;2304;47.606;12.186;2023-04-12T14:11:25;15.80;52.60
4584;DHT22;2304;47.606;12.186;2023-04-12T14:16:27;15.90;52.40
4584;DHT22;2304;47.606;12.186;2023-04-12T14:21:28;16.00;51.90
4584;DHT22;2304;47.606;12.186;2023-04-12T14:26:32;16.20;52.60
4584;DHT22;2304;47.606;12.186;2023-04-12T14:31:34;16.30;52.90
4584;DHT22;2304;47.606;12.186;2023-04-12T14:36:36;16.50;53.10
4584;DHT22;2304;47.606;12.186;2023-04-12T14:41:40;16.80;52.40
4584;DHT22;2304;47.606;12.186;2023-04-12T14:46:42;16.80;51.70
4584;DHT22;2304;47.606;12.186;2023-04-12T14:51:44;16.70;51.70
4584;DHT22;2304;47.606;12.186;2023-04-12T14:56:47;16.60;51.90
4584;DHT22;2304;47.606;12.186;2023-04-12T15:01:50;16.40;52.50
4584;DHT22;2304;47.606;12.186;2023-04-12T15:06:52;16.50;53.70
4584;DHT22;2304;47.606;12.186;2023-04-12T15:11:55;16.50;54.00
4584;DHT22;2304;47.606;12.186;2023-04-12T15:17:01;16.40;53.80
4584;DHT22;2304;47.606;12.186;2023-04-12T15:22:02;16.30;54.20
4584;DHT22;2304;47.606;12.186;2023-04-12T15:27:06;16.50;53.40
4584;DHT22;2304;47.606;12.186;2023-04-12T15:32:07;16.40;52.80
4584;DHT22;2304;47.606;12.186;2023-04-12T15:37:09;16.30;52.60
4584;DHT22;2304;47.606;12.186;2023-04-12T15:42:12;16.30;53.00
4584;DHT22;2304;47.606;12.186;2023-04-12T15:47:14;16.30;53.00
4584;DHT22;2304;47.606;12.186;2023-04-12T15:52:16;16.20;52.80
4584;DHT22;2304;47.606;12.186;2023-04-12T15:57:19;16.20;53.60
4584;DHT22;2304;47.606;12.186;2023-04-12T16:02:21;16.10;53.00
4584;DHT22;2304;47.606;12.186;2023-04-12T16:07:23;16.00;53.10
4584;DHT22;2304;47.606;12.186;2023-04-12T16:12:27;16.00;53.40
4584;DHT22;2304;47.606;12.186;2023-04-12T16:17:28;15.90;54.60
4584;DHT22;2304;47.606;12.186;2023-04-12T16:22:30;15.80;54.20
4584;DHT22;2304;47.606;12.186;2023-04-12T16:27:34;15.90;54.30
4584;DHT22;2304;47.606;12.186;2023-04-12T16:32:36;15.70;54.30
4584;DHT22;2304;47.606;12.186;2023-04-12T16:37:38;15.60;54.40
4584;DHT22;2304;47.606;12.186;2023-04-12T16:42:42;15.50;54.90
4584;DHT22;2304;47.606;12.186;2023-04-12T16:47:45;15.50;55.10
4584;DHT22;2304;47.606;12.186;2023-04-12T16:52:47;15.60;54.80
4584;DHT22;2304;47.606;12.186;2023-04-12T16:57:50;15.50;55.00
4584;DHT22;2304;47.606;12.186;2023-04-12T17:02:53;15.40;55.20
4584;DHT22;2304;47.606;12.186;2023-04-12T17:07:55;15.60;55.40
4584;DHT22;2304;47.606;12.186;2023-04-12T17:12:58;15.30;55.70
4584;DHT22;2304;47.606;12.186;2023-04-12T17:18:02;15.20;56.00
4584;DHT22;2304;47.606;12.186;2023-04-12T17:23:05;15.10;56.60
4584;DHT22;2304;47.606;12.186;2023-04-12T17:28:08;15.20;55.80
4584;DHT22;2304;47.606;12.186;2023-04-12T17:33:10;15.10;55.90
4584;DHT22;2304;47.606;12.186;2023-04-12T17:38:12;15.00;55.90
4584;DHT22;2304;47.606;12.186;2023-04-12T17:43:15;15.00;56.20
4584;DHT22;2304;47.606;12.186;2023-04-12T17:48:17;15.00;56.40
4584;DHT22;2304;47.606;12.186;2023-04-12T17:53:19;14.90;57.00
4584;DHT22;2304;47.606;12.186;2023-04-12T17:58:22;14.80;57.20
4584;DHT22;2304;47.606;12.186;2023-04-12T18:03:24;14.80;57.70
4584;DHT22;2304;47.606;12.186;2023-04-12T18:08:26;14.60;58.40
4584;DHT22;2304;47.606;12.186;2023-04-12T18:13:30;14.40;58.70
4584;DHT22;2304;47.606;12.186;2023-04-12T18:18:31;14.30;59.10
4584;DHT22;2304;47.606;12.186;2023-04-12T18:23:33;14.20;60.50
4584;DHT22;2304;47.606;12.186;2023-04-12T18:28:36;14.10;59.70
4584;DHT22;2304;47.606;12.186;2023-04-12T18:33:38;13.90;59.90
4584;DHT22;2304;47.606;12.186;2023-04-12T18:38:42;13.80;60.40
4584;DHT22;2304;47.606;12.186;2023-04-12T18:43:45;13.80;60.70
4584;DHT22;2304;47.606;12.186;2023-04-12T18:48:47;13.80;60.90
4584;DHT22;2304;47.606;12.186;2023-04-12T18:53:51;13.70;61.50
4584;DHT22;2304;47.606;12.186;2023-04-12T18:58:54;13.60;62.60
4584;DHT22;2304;47.606;12.186;2023-04-12T19:03:56;13.50;62.60
4584;DHT22;2304;47.606;12.186;2023-04-12T19:09:00;13.50;62.50
4584;DHT22;2304;47.606;12.186;2023-04-12T19:14:04;13.50;62.60
4584;DHT22;2304;47.606;12.186;2023-04-12T19:19:07;13.40;62.90
4584;DHT22;2304;47.606;12.186;2023-04-12T19:24:09;13.40;64.00
4584;DHT22;2304;47.606;12.186;2023-04-12T19:29:12;13.40;63.90
4584;DHT22;2304;47.606;12.186;2023-04-12T19:34:15;13.20;64.50
4584;DHT22;2304;47.606;12.186;2023-04-12T19:39:17;13.10;64.80
4584;DHT22;2304;47.606;12.186;2023-04-12T19:44:21;13.10;64.40
4584;DHT22;2304;47.606;12.186;2023-04-12T19:49:23;13.20;64.70
4584;DHT22;2304;47.606;12.186;2023-04-12T19:54:25;13.20;64.90
4584;DHT22;2304;47.606;12.186;2023-04-12T19:59:29;13.10;65.90
4584;DHT22;2304;47.606;12.186;2023-04-12T20:04:33;12.90;67.30
4584;DHT22;2304;47.606;12.186;2023-04-12T20:09:35;12.80;66.80
4584;DHT22;2304;47.606;12.186;2023-04-12T20:14:38;12.80;67.70
4584;DHT22;2304;47.606;12.186;2023-04-12T20:19:40;12.70;68.30
4584;DHT22;2304;47.606;12.186;2023-04-12T20:24:42;12.50;68.60
4584;DHT22;2304;47.606;12.186;2023-04-12T20:29:48;12.40;70.10
4584;DHT22;2304;47.606;12.186;2023-04-12T20:34:50;12.40;69.90
4584;DHT22;2304;47.606;12.186;2023-04-12T20:39:52;12.40;69.00
4584;DHT22;2304;47.606;12.186;2023-04-12T20:44:55;12.30;67.60
4584;DHT22;2304;47.606;12.186;2023-04-12T20:49:57;12.40;66.40
4584;DHT22;2304;47.606;12.186;2023-04-12T20:54:58;12.40;65.90
4584;DHT22;2304;47.606;12.186;2023-04-12T21:00:02;12.40;64.50
4584;DHT22;2304;47.606;12.186;2023-04-12T21:05:12;12.50;63.80
4584;DHT22;2304;47.606;12.186;2023-04-12T21:10:16;12.70;63.40
4584;DHT22;2304;47.606;12.186;2023-04-12T21:15:19;12.50;64.20
4584;DHT22;2304;47.606;12.186;2023-04-12T21:20:22;12.40;65.10
4584;DHT22;2304;47.606;12.186;2023-04-12T21:25:24;12.30;66.90
4584;DHT22;2304;47.606;12.186;2023-04-12T21:30:27;12.20;68.60
4584;DHT22;2304;47.606;12.186;2023-04-12T21:35:29;12.30;69.40
4584;DHT22;2304;47.606;12.186;2023-04-12T21:40:31;12.20;69.90
4584;DHT22;2304;47.606;12.186;2023-04-12T21:45:34;12.20;70.60
4584;DHT22;2304;47.606;12.186;2023-04-12T21:50:36;12.10;71.60
4584;DHT22;2304;47.606;12.186;2023-04-12T21:55:38;12.00;72.60
4584;DHT22;2304;47.606;12.186;2023-04-12T22:00:42;12.00;73.20
4584;DHT22;2304;47.606;12.186;2023-04-12T22:05:44;11.90;75.10
4584;DHT22;2304;47.606;12.186;2023-04-12T22:10:46;11.80;75.40
4584;DHT22;2304;47.606;12.186;2023-04-12T22:15:50;11.70;76.90
4584;DHT22;2304;47.606;12.186;2023-04-12T22:20:52;11.60;77.00
4584;DHT22;2304;47.606;12.186;2023-04-12T22:25:54;11.70;76.90
4584;DHT22;2304;47.606;12.186;2023-04-12T22:30:59;11.70;76.10
4584;DHT22;2304;47.606;12.186;2023-04-12T22:36:01;11.70;75.50
4584;DHT22;2304;47.606;12.186;2023-04-12T22:41:05;11.60;75.40
4584;DHT22;2304;47.606;12.186;2023-04-12T22:46:09;11.60;77.00
4584;DHT22;2304;47.606;12.186;2023-04-12T22:51:15;11.40;78.60
4584;DHT22;2304;47.606;12.186;2023-04-12T22:56:17;11.20;79.80
4584;DHT22;2304;47.606;12.186;2023-04-12T23:01:20;11.20;80.90
4584;DHT22;2304;47.606;12.186;2023-04-12T23:06:23;11.10;80.10
4584;DHT22;2304;47.606;12.186;2023-04-12T23:11:26;11.20;79.20
4584;DHT22;2304;47.606;12.186;2023-04-12T23:16:29;11.20;76.50
4584;DHT22;2304;47.606;12.186;2023-04-12T23:21:33;11.10;75.20
4584;DHT22;2304;47.606;12.186;2023-04-12T23:26:35;11.10;74.70
4584;DHT22;2304;47.606;12.186;2023-04-12T23:31:39;11.00;73.30
4584;DHT22;2304;47.606;12.186;2023-04-12T23:36:41;11.00;72.20
4584;DHT22;2304;47.606;12.186;2023-04-12T23:41:44;10.90;71.40
4584;DHT22;2304;47.606;12.186;2023-04-12T23:46:47;10.90;71.60
4584;DHT22;2304;47.606;12.186;2023-04-12T23:51:49;10.90;71.10
4584;DHT22;2304;47.606;12.186;2023-04-12T23:56:50;10.80;71.10
